sensor_id;sensor_type;location;lat;lon;timestamp;pressure;altitude;pressure_sealevel;temperature;humidity
61357;BME280;47227;46.752;23.576;2024-01-15T00:01:32;95295.70;;;-3.53;74.08
61357;BME280;47227;46.752;23.576;2024-01-15T00:04:01;95297.35;;;-3.57;74.62
61357;BME280;47227;46.752;23.576;2024-01-15T00:06:30;95299.79;;;-3.63;76.50
61357;BME280;47227;46.752;23.576;2024-01-15T00:09:00;95294.98;;;-3.69;77.31
61357;BME280;47227;46.752;23.576;2024-01-15T00:11:29;95289.73;;;-3.69;75.94
61357;BME280;47227;46.752;23.576;2024-01-15T00:13:58;95287.06;;;-3.70;75.39
61357;BME280;47227;46.752;23.576;2024-01-15T00:16:26;95282.96;;;-3.70;75.05
61357;BME280;47227;46.752;23.576;2024-01-15T00:18:55;95281.11;;;-3.71;74.46
61357;BME280;47227;46.752;23.576;2024-01-15T00:21:24;95274.89;;;-3.74;74.44
61357;BME280;47227;46.752;23.576;2024-01-15T00:23:52;95274.02;;;-3.75;74.04
61357;BME280;47227;46.752;23.576;2024-01-15T00:26:20;95270.21;;;-3.76;74.51
61357;BME280;47227;46.752;23.576;2024-01-15T00:28:49;95268.88;;;-3.79;75.15
61357;BME280;47227;46.752;23.576;2024-01-15T00:31:18;95270.98;;;-3.82;74.47
61357;BME280;47227;46.752;23.576;2024-01-15T00:33:46;95270.58;;;-3.88;75.57
61357;BME280;47227;46.752;23.576;2024-01-15T00:36:15;95269.46;;;-3.95;77.76
61357;BME280;47227;46.752;23.576;2024-01-15T00:38:45;95262.84;;;-4.00;77.52
61357;BME280;47227;46.752;23.576;2024-01-15T00:41:16;95261.45;;;-4.04;77.63
61357;BME280;47227;46.752;23.576;2024-01-15T00:43:45;95265.52;;;-4.07;77.57
61357;BME280;47227;46.752;23.576;2024-01-15T00:46:14;95254.69;;;-4.11;78.90
61357;BME280;47227;46.752;23.576;2024-01-15T00:48:42;95256.67;;;-4.13;79.19
61357;BME280;47227;46.752;23.576;2024-01-15T00:51:11;95255.75;;;-4.14;78.29
61357;BME280;47227;46.752;23.576;2024-01-15T00:53:40;95252.86;;;-4.16;78.76
61357;BME280;47227;46.752;23.576;2024-01-15T00:56:08;95252.59;;;-4.15;78.48
61357;BME280;47227;46.752;23.576;2024-01-15T00:58:37;95240.39;;;-4.14;77.65
61357;BME280;47227;46.752;23.576;2024-01-15T01:01:06;95243.27;;;-4.11;77.05
61357;BME280;47227;46.752;23.576;2024-01-15T01:03:34;95230.88;;;-4.08;77.24
61357;BME280;47227;46.752;23.576;2024-01-15T01:06:03;95233.77;;;-4.05;76.91
61357;BME280;47227;46.752;23.576;2024-01-15T01:08:32;95235.40;;;-4.02;76.63
61357;BME280;47227;46.752;23.576;2024-01-15T01:11:00;95229.25;;;-3.98;76.45
61357;BME280;47227;46.752;23.576;2024-01-15T01:13:29;95224.91;;;-3.94;76.14
61357;BME280;47227;46.752;23.576;2024-01-15T01:15:57;95220.75;;;-3.89;76.09
61357;BME280;47227;46.752;23.576;2024-01-15T01:18:26;95222.95;;;-3.85;75.94
61357;BME280;47227;46.752;23.576;2024-01-15T01:20:55;95220.52;;;-3.79;76.13
61357;BME280;47227;46.752;23.576;2024-01-15T01:23:23;95220.94;;;-3.73;76.14
61357;BME280;47227;46.752;23.576;2024-01-15T01:25:52;95218.39;;;-3.65;75.71
61357;BME280;47227;46.752;23.576;2024-01-15T01:28:20;95220.30;;;-3.58;76.21
61357;BME280;47227;46.752;23.576;2024-01-15T01:30:48;95217.60;;;-3.52;76.87
61357;BME280;47227;46.752;23.576;2024-01-15T01:33:17;95207.88;;;-3.43;76.15
61357;BME280;47227;46.752;23.576;2024-01-15T01:35:46;95200.41;;;-3.33;75.94
61357;BME280;47227;46.752;23.576;2024-01-15T01:38:15;95193.05;;;-3.22;75.89
61357;BME280;47227;46.752;23.576;2024-01-15T01:40:44;95187.20;;;-3.13;76.08
61357;BME280;47227;46.752;23.576;2024-01-15T01:43:12;95179.02;;;-3.03;75.94
61357;BME280;47227;46.752;23.576;2024-01-15T01:45:41;95176.59;;;-2.94;76.17
61357;BME280;47227;46.752;23.576;2024-01-15T01:48:09;95177.20;;;-2.91;76.22
61357;BME280;47227;46.752;23.576;2024-01-15T01:50:38;95171.77;;;-2.85;75.76
61357;BME280;47227;46.752;23.576;2024-01-15T01:53:07;95169.60;;;-2.77;75.69
61357;BME280;47227;46.752;23.576;2024-01-15T01:55:36;95171.88;;;-2.68;75.62
61357;BME280;47227;46.752;23.576;2024-01-15T01:58:06;95157.96;;;-2.62;75.94
61357;BME280;47227;46.752;23.576;2024-01-15T02:00:36;95153.98;;;-2.64;76.23
61357;BME280;47227;46.752;23.576;2024-01-15T02:03:05;95148.38;;;-2.59;75.84
61357;BME280;47227;46.752;23.576;2024-01-15T02:05:35;95148.63;;;-2.57;75.73
61357;BME280;47227;46.752;23.576;2024-01-15T02:08:04;95142.09;;;-2.52;75.58
61357;BME280;47227;46.752;23.576;2024-01-15T02:10:32;95139.04;;;-2.51;75.20
61357;BME280;47227;46.752;23.576;2024-01-15T02:13:00;95136.35;;;-2.55;75.26
61357;BME280;47227;46.752;23.576;2024-01-15T02:15:29;95131.83;;;-2.61;75.26
61357;BME280;47227;46.752;23.576;2024-01-15T02:17:59;95131.80;;;-2.60;74.96
61357;BME280;47227;46.752;23.576;2024-01-15T02:20:28;95122.55;;;-2.59;74.77
61357;BME280;47227;46.752;23.576;2024-01-15T02:23:05;95123.27;;;-2.62;74.91
61357;BME280;47227;46.752;23.576;2024-01-15T02:25:33;95122.54;;;-2.64;74.95
61357;BME280;47227;46.752;23.576;2024-01-15T02:28:02;95122.48;;;-2.71;75.14
61357;BME280;47227;46.752;23.576;2024-01-15T02:30:32;95109.61;;;-2.80;76.68
61357;BME280;47227;46.752;23.576;2024-01-15T02:33:02;95110.86;;;-2.86;76.40
61357;BME280;47227;46.752;23.576;2024-01-15T02:35:31;95103.23;;;-2.89;77.06
61357;BME280;47227;46.752;23.576;2024-01-15T02:37:59;95116.45;;;-2.92;77.04
61357;BME280;47227;46.752;23.576;2024-01-15T02:40:28;95110.51;;;-2.96;76.37
61357;BME280;47227;46.752;23.576;2024-01-15T02:42:57;95103.40;;;-2.97;75.99
61357;BME280;47227;46.752;23.576;2024-01-15T02:45:25;95101.06;;;-2.99;76.74
61357;BME280;47227;46.752;23.576;2024-01-15T02:47:53;95092.91;;;-3.07;77.73
61357;BME280;47227;46.752;23.576;2024-01-15T02:50:22;95092.05;;;-3.11;77.32
61357;BME280;47227;46.752;23.576;2024-01-15T02:52:51;95095.95;;;-3.13;77.79
61357;BME280;47227;46.752;23.576;2024-01-15T02:55:19;95093.63;;;-3.20;78.81
61357;BME280;47227;46.752;23.576;2024-01-15T02:57:48;95087.36;;;-3.21;77.72
61357;BME280;47227;46.752;23.576;2024-01-15T03:00:16;95080.58;;;-3.18;77.16
61357;BME280;47227;46.752;23.576;2024-01-15T03:02:45;95077.59;;;-3.18;77.48
61357;BME280;47227;46.752;23.576;2024-01-15T03:05:16;95079.84;;;-3.18;76.89
61357;BME280;47227;46.752;23.576;2024-01-15T03:07:45;95079.63;;;-3.17;76.77
61357;BME280;47227;46.752;23.576;2024-01-15T03:10:13;95081.51;;;-3.15;76.68
61357;BME280;47227;46.752;23.576;2024-01-15T03:12:42;95080.13;;;-3.14;76.28
61357;BME280;47227;46.752;23.576;2024-01-15T03:15:11;95067.50;;;-3.14;76.62
61357;BME280;47227;46.752;23.576;2024-01-15T03:17:41;95060.27;;;-3.14;76.48
61357;BME280;47227;46.752;23.576;2024-01-15T03:20:11;95062.03;;;-3.11;76.16
61357;BME280;47227;46.752;23.576;2024-01-15T03:22:39;95058.95;;;-3.10;76.12
61357;BME280;47227;46.752;23.576;2024-01-15T03:25:08;95058.24;;;-3.08;76.37
61357;BME280;47227;46.752;23.576;2024-01-15T03:27:37;95061.73;;;-3.10;76.34
61357;BME280;47227;46.752;23.576;2024-01-15T03:30:06;95056.52;;;-3.08;76.01
61357;BME280;47227;46.752;23.576;2024-01-15T03:32:35;95065.33;;;-3.06;76.68
61357;BME280;47227;46.752;23.576;2024-01-15T03:35:04;95060.52;;;-3.11;78.15
61357;BME280;47227;46.752;23.576;2024-01-15T03:37:32;95059.81;;;-3.11;78.20
61357;BME280;47227;46.752;23.576;2024-01-15T03:40:01;95057.21;;;-3.09;78.16
61357;BME280;47227;46.752;23.576;2024-01-15T03:42:31;95060.39;;;-3.06;77.43
61357;BME280;47227;46.752;23.576;2024-01-15T03:44:59;95059.79;;;-3.05;77.38
61357;BME280;47227;46.752;23.576;2024-01-15T03:47:27;95054.01;;;-3.06;78.61
61357;BME280;47227;46.752;23.576;2024-01-15T03:49:56;95055.19;;;-3.03;77.88
61357;BME280;47227;46.752;23.576;2024-01-15T03:52:25;95044.34;;;-3.02;78.41
61357;BME280;47227;46.752;23.576;2024-01-15T03:54:53;95044.17;;;-3.01;78.24
61357;BME280;47227;46.752;23.576;2024-01-15T03:57:22;95045.33;;;-3.00;78.03
61357;BME280;47227;46.752;23.576;2024-01-15T03:59:50;95029.66;;;-3.01;78.15
61357;BME280;47227;46.752;23.576;2024-01-15T04:02:19;95028.33;;;-3.00;77.97
61357;BME280;47227;46.752;23.576;2024-01-15T04:04:47;95031.66;;;-2.98;77.70
61357;BME280;47227;46.752;23.576;2024-01-15T04:07:16;95018.30;;;-2.96;78.12
61357;BME280;47227;46.752;23.576;2024-01-15T04:09:45;95014.73;;;-2.94;77.58
61357;BME280;47227;46.752;23.576;2024-01-15T04:12:13;95020.06;;;-2.91;77.60
61357;BME280;47227;46.752;23.576;2024-01-15T04:14:42;95014.15;;;-2.91;77.14
61357;BME280;47227;46.752;23.576;2024-01-15T04:17:10;95015.30;;;-2.90;77.22
61357;BME280;47227;46.752;23.576;2024-01-15T04:19:39;95011.52;;;-2.91;77.50
61357;BME280;47227;46.752;23.576;2024-01-15T04:22:07;95005.66;;;-2.91;77.18
61357;BME280;47227;46.752;23.576;2024-01-15T04:24:36;95004.27;;;-2.89;76.62
61357;BME280;47227;46.752;23.576;2024-01-15T04:27:05;95001.09;;;-2.90;76.65
61357;BME280;47227;46.752;23.576;2024-01-15T04:29:34;95003.30;;;-2.89;76.52
61357;BME280;47227;46.752;23.576;2024-01-15T04:32:08;95004.73;;;-2.87;76.28
61357;BME280;47227;46.752;23.576;2024-01-15T04:34:36;95009.95;;;-2.81;76.15
61357;BME280;47227;46.752;23.576;2024-01-15T04:37:05;95001.58;;;-2.76;76.06
61357;BME280;47227;46.752;23.576;2024-01-15T04:39:33;95001.59;;;-2.71;76.13
61357;BME280;47227;46.752;23.576;2024-01-15T04:42:02;94997.18;;;-2.65;76.33
61357;BME280;47227;46.752;23.576;2024-01-15T04:44:31;94994.84;;;-2.60;75.78
61357;BME280;47227;46.752;23.576;2024-01-15T04:47:00;94994.30;;;-2.53;75.88
61357;BME280;47227;46.752;23.576;2024-01-15T04:49:28;95003.98;;;-2.44;75.86
61357;BME280;47227;46.752;23.576;2024-01-15T04:51:57;95014.23;;;-2.40;75.03
61357;BME280;47227;46.752;23.576;2024-01-15T04:54:26;95009.63;;;-2.36;75.20
61357;BME280;47227;46.752;23.576;2024-01-15T04:56:54;94991.49;;;-2.44;74.89
61357;BME280;47227;46.752;23.576;2024-01-15T04:59:23;94992.80;;;-2.41;74.76
61357;BME280;47227;46.752;23.576;2024-01-15T05:01:51;94989.52;;;-2.41;74.78
61357;BME280;47227;46.752;23.576;2024-01-15T05:04:20;94992.05;;;-2.38;74.85
61357;BME280;47227;46.752;23.576;2024-01-15T05:06:48;94985.21;;;-2.35;74.92
61357;BME280;47227;46.752;23.576;2024-01-15T05:09:17;94972.58;;;-2.34;74.84
61357;BME280;47227;46.752;23.576;2024-01-15T05:11:46;94965.85;;;-2.33;74.82
61357;BME280;47227;46.752;23.576;2024-01-15T05:14:14;94961.27;;;-2.30;75.02
61357;BME280;47227;46.752;23.576;2024-01-15T05:16:49;94962.65;;;-2.28;74.91
61357;BME280;47227;46.752;23.576;2024-01-15T05:19:18;94955.52;;;-2.25;75.03
61357;BME280;47227;46.752;23.576;2024-01-15T05:21:47;94957.66;;;-2.21;75.35
61357;BME280;47227;46.752;23.576;2024-01-15T05:24:15;94944.08;;;-2.23;74.89
61357;BME280;47227;46.752;23.576;2024-01-15T05:26:44;94947.07;;;-2.23;75.42
61357;BME280;47227;46.752;23.576;2024-01-15T05:29:12;94972.45;;;-2.19;75.55
61357;BME280;47227;46.752;23.576;2024-01-15T05:31:41;94962.26;;;-2.25;74.95
61357;BME280;47227;46.752;23.576;2024-01-15T05:34:10;94951.67;;;-2.31;75.48
61357;BME280;47227;46.752;23.576;2024-01-15T05:36:39;94948.55;;;-2.35;75.74
61357;BME280;47227;46.752;23.576;2024-01-15T05:39:08;94956.14;;;-2.34;75.65
61357;BME280;47227;46.752;23.576;2024-01-15T05:41:38;94944.16;;;-2.39;76.31
61357;BME280;47227;46.752;23.576;2024-01-15T05:44:06;94936.88;;;-2.40;76.36
61357;BME280;47227;46.752;23.576;2024-01-15T05:46:35;94934.23;;;-2.41;77.09
61357;BME280;47227;46.752;23.576;2024-01-15T05:49:03;94932.84;;;-2.41;76.69
61357;BME280;47227;46.752;23.576;2024-01-15T05:51:32;94918.42;;;-2.43;76.16
61357;BME280;47227;46.752;23.576;2024-01-15T05:54:00;94921.91;;;-2.46;76.33
61357;BME280;47227;46.752;23.576;2024-01-15T05:56:29;94918.59;;;-2.50;76.78
61357;BME280;47227;46.752;23.576;2024-01-15T05:58:57;94922.45;;;-2.52;76.41
61357;BME280;47227;46.752;23.576;2024-01-15T06:01:26;94916.14;;;-2.54;76.62
61357;BME280;47227;46.752;23.576;2024-01-15T06:03:54;94912.91;;;-2.56;76.11
61357;BME280;47227;46.752;23.576;2024-01-15T06:06:23;94916.66;;;-2.58;75.78
61357;BME280;47227;46.752;23.576;2024-01-15T06:08:51;94905.25;;;-2.62;75.86
61357;BME280;47227;46.752;23.576;2024-01-15T06:11:20;94911.92;;;-2.66;76.58
61357;BME280;47227;46.752;23.576;2024-01-15T06:13:48;94906.36;;;-2.69;76.36
61357;BME280;47227;46.752;23.576;2024-01-15T06:16:17;94902.25;;;-2.73;77.68
61357;BME280;47227;46.752;23.576;2024-01-15T06:18:47;94907.44;;;-2.73;76.90
61357;BME280;47227;46.752;23.576;2024-01-15T06:21:16;94904.97;;;-2.75;77.73
61357;BME280;47227;46.752;23.576;2024-01-15T06:23:45;94903.05;;;-2.75;78.01
61357;BME280;47227;46.752;23.576;2024-01-15T06:26:14;94896.84;;;-2.76;77.59
61357;BME280;47227;46.752;23.576;2024-01-15T06:28:42;94895.39;;;-2.78;78.56
61357;BME280;47227;46.752;23.576;2024-01-15T06:31:11;94896.17;;;-2.77;78.02
61357;BME280;47227;46.752;23.576;2024-01-15T06:33:40;94893.41;;;-2.80;77.94
61357;BME280;47227;46.752;23.576;2024-01-15T06:36:09;94890.77;;;-2.79;78.10
61357;BME280;47227;46.752;23.576;2024-01-15T06:38:39;94891.27;;;-2.79;77.53
61357;BME280;47227;46.752;23.576;2024-01-15T06:41:08;94886.58;;;-2.80;77.16
61357;BME280;47227;46.752;23.576;2024-01-15T06:43:37;94894.08;;;-2.80;76.99
61357;BME280;47227;46.752;23.576;2024-01-15T06:46:05;94901.38;;;-2.79;77.41
61357;BME280;47227;46.752;23.576;2024-01-15T06:48:35;94895.02;;;-2.79;78.30
61357;BME280;47227;46.752;23.576;2024-01-15T06:51:04;94890.33;;;-2.77;78.01
61357;BME280;47227;46.752;23.576;2024-01-15T06:53:33;94891.00;;;-2.74;77.46
61357;BME280;47227;46.752;23.576;2024-01-15T06:56:01;94884.77;;;-2.71;77.74
61357;BME280;47227;46.752;23.576;2024-01-15T06:58:33;94889.92;;;-2.69;77.86
61357;BME280;47227;46.752;23.576;2024-01-15T07:01:01;94884.64;;;-2.68;78.25
61357;BME280;47227;46.752;23.576;2024-01-15T07:03:30;94892.23;;;-2.66;77.67
61357;BME280;47227;46.752;23.576;2024-01-15T07:05:59;94882.93;;;-2.64;77.39
61357;BME280;47227;46.752;23.576;2024-01-15T07:08:27;94867.38;;;-2.62;77.90
61357;BME280;47227;46.752;23.576;2024-01-15T07:10:56;94876.80;;;-2.55;77.75
61357;BME280;47227;46.752;23.576;2024-01-15T07:13:24;94873.33;;;-2.47;77.58
61357;BME280;47227;46.752;23.576;2024-01-15T07:15:53;94860.40;;;-2.42;77.54
61357;BME280;47227;46.752;23.576;2024-01-15T07:18:21;94854.10;;;-2.34;77.43
61357;BME280;47227;46.752;23.576;2024-01-15T07:20:50;94866.84;;;-2.24;77.30
61357;BME280;47227;46.752;23.576;2024-01-15T07:23:19;94858.67;;;-2.16;77.17
61357;BME280;47227;46.752;23.576;2024-01-15T07:25:48;94865.57;;;-2.08;77.00
61357;BME280;47227;46.752;23.576;2024-01-15T07:28:19;94861.98;;;-2.04;77.01
61357;BME280;47227;46.752;23.576;2024-01-15T07:30:48;94863.83;;;-1.98;76.90
61357;BME280;47227;46.752;23.576;2024-01-15T07:33:16;94862.14;;;-1.91;76.98
61357;BME280;47227;46.752;23.576;2024-01-15T07:35:45;94868.55;;;-1.81;76.95
61357;BME280;47227;46.752;23.576;2024-01-15T07:38:13;94861.71;;;-1.74;76.66
61357;BME280;47227;46.752;23.576;2024-01-15T07:40:42;94857.74;;;-1.70;76.48
61357;BME280;47227;46.752;23.576;2024-01-15T07:43:10;94857.70;;;-1.63;76.57
61357;BME280;47227;46.752;23.576;2024-01-15T07:45:39;94845.60;;;-1.64;76.20
61357;BME280;47227;46.752;23.576;2024-01-15T07:48:11;94847.92;;;-1.62;76.16
61357;BME280;47227;46.752;23.576;2024-01-15T07:50:39;94853.33;;;-1.59;76.39
61357;BME280;47227;46.752;23.576;2024-01-15T07:53:08;94851.31;;;-1.58;76.53
61357;BME280;47227;46.752;23.576;2024-01-15T07:55:36;94853.13;;;-1.52;76.33
61357;BME280;47227;46.752;23.576;2024-01-15T07:58:05;94852.80;;;-1.47;76.91
61357;BME280;47227;46.752;23.576;2024-01-15T08:00:43;94853.98;;;-1.39;76.56
61357;BME280;47227;46.752;23.576;2024-01-15T08:03:13;94862.11;;;-1.31;76.63
61357;BME280;47227;46.752;23.576;2024-01-15T08:05:41;94866.92;;;-1.23;76.51
61357;BME280;47227;46.752;23.576;2024-01-15T08:08:10;94871.14;;;-1.19;76.29
61357;BME280;47227;46.752;23.576;2024-01-15T08:10:39;94868.61;;;-1.19;75.97
61357;BME280;47227;46.752;23.576;2024-01-15T08:13:07;94869.58;;;-1.21;75.84
61357;BME280;47227;46.752;23.576;2024-01-15T08:15:41;94861.20;;;-1.23;75.73
61357;BME280;47227;46.752;23.576;2024-01-15T08:18:09;94859.98;;;-1.26;76.30
61357;BME280;47227;46.752;23.576;2024-01-15T08:20:40;94851.04;;;-1.25;76.27
61357;BME280;47227;46.752;23.576;2024-01-15T08:23:08;94845.71;;;-1.22;76.26
61357;BME280;47227;46.752;23.576;2024-01-15T08:25:37;94848.41;;;-1.18;76.56
61357;BME280;47227;46.752;23.576;2024-01-15T08:28:06;94837.08;;;-1.16;76.33
61357;BME280;47227;46.752;23.576;2024-01-15T08:30:34;94833.39;;;-1.10;76.48
61357;BME280;47227;46.752;23.576;2024-01-15T08:33:03;94828.51;;;-1.03;76.48
61357;BME280;47227;46.752;23.576;2024-01-15T08:35:45;94820.64;;;-0.94;76.45
61357;BME280;47227;46.752;23.576;2024-01-15T08:38:13;94822.84;;;-0.83;76.49
61357;BME280;47227;46.752;23.576;2024-01-15T08:40:42;94820.65;;;-0.72;76.27
61357;BME280;47227;46.752;23.576;2024-01-15T08:43:10;94817.77;;;-0.61;76.48
61357;BME280;47227;46.752;23.576;2024-01-15T08:45:39;94806.98;;;-0.52;76.22
61357;BME280;47227;46.752;23.576;2024-01-15T08:48:07;94803.91;;;-0.38;75.80
61357;BME280;47227;46.752;23.576;2024-01-15T08:50:36;94810.84;;;-0.30;75.86
61357;BME280;47227;46.752;23.576;2024-01-15T08:53:05;94803.55;;;-0.24;75.34
61357;BME280;47227;46.752;23.576;2024-01-15T08:55:33;94798.30;;;-0.15;75.45
61357;BME280;47227;46.752;23.576;2024-01-15T08:58:02;94803.24;;;-0.10;75.38
61357;BME280;47227;46.752;23.576;2024-01-15T09:00:31;94802.31;;;-0.05;75.43
61357;BME280;47227;46.752;23.576;2024-01-15T09:03:00;94801.40;;;0.02;75.35
61357;BME280;47227;46.752;23.576;2024-01-15T09:05:31;94802.77;;;0.07;75.23
61357;BME280;47227;46.752;23.576;2024-01-15T09:08:06;94808.40;;;0.13;75.24
61357;BME280;47227;46.752;23.576;2024-01-15T09:10:35;94799.23;;;0.17;75.07
61357;BME280;47227;46.752;23.576;2024-01-15T09:13:03;94798.25;;;0.21;74.50
61357;BME280;47227;46.752;23.576;2024-01-15T09:15:33;94796.05;;;0.26;74.61
61357;BME280;47227;46.752;23.576;2024-01-15T09:18:02;94797.29;;;0.32;74.48
61357;BME280;47227;46.752;23.576;2024-01-15T09:20:35;94792.45;;;0.37;74.46
61357;BME280;47227;46.752;23.576;2024-01-15T09:23:04;94792.27;;;0.41;74.42
61357;BME280;47227;46.752;23.576;2024-01-15T09:25:33;94794.98;;;0.49;74.26
61357;BME280;47227;46.752;23.576;2024-01-15T09:28:01;94795.52;;;0.56;74.23
61357;BME280;47227;46.752;23.576;2024-01-15T09:30:30;94791.92;;;0.66;74.44
61357;BME280;47227;46.752;23.576;2024-01-15T09:32:59;94789.16;;;0.73;74.19
61357;BME280;47227;46.752;23.576;2024-01-15T09:35:28;94784.55;;;0.81;73.79
61357;BME280;47227;46.752;23.576;2024-01-15T09:37:56;94780.51;;;0.96;74.17
61357;BME280;47227;46.752;23.576;2024-01-15T09:40:26;94776.89;;;1.15;73.65
61357;BME280;47227;46.752;23.576;2024-01-15T09:42:57;94768.47;;;1.29;72.64
61357;BME280;47227;46.752;23.576;2024-01-15T09:45:29;94766.52;;;1.42;71.76
61357;BME280;47227;46.752;23.576;2024-01-15T09:48:01;94770.20;;;1.54;72.52
61357;BME280;47227;46.752;23.576;2024-01-15T09:50:30;94770.24;;;1.65;72.21
61357;BME280;47227;46.752;23.576;2024-01-15T09:52:59;94765.64;;;1.72;71.61
61357;BME280;47227;46.752;23.576;2024-01-15T09:55:28;94767.07;;;1.77;69.45
61357;BME280;47227;46.752;23.576;2024-01-15T09:57:57;94767.09;;;1.82;69.47
61357;BME280;47227;46.752;23.576;2024-01-15T10:00:29;94761.76;;;1.88;68.93
61357;BME280;47227;46.752;23.576;2024-01-15T10:03:02;94760.23;;;1.95;68.32
61357;BME280;47227;46.752;23.576;2024-01-15T10:05:31;94761.66;;;2.02;68.82
61357;BME280;47227;46.752;23.576;2024-01-15T10:08:00;94762.02;;;2.07;68.02
61357;BME280;47227;46.752;23.576;2024-01-15T10:10:29;94767.48;;;2.09;67.75
61357;BME280;47227;46.752;23.576;2024-01-15T10:12:58;94768.53;;;2.09;66.86
61357;BME280;47227;46.752;23.576;2024-01-15T10:15:28;94774.77;;;2.09;67.04
61357;BME280;47227;46.752;23.576;2024-01-15T10:17:57;94772.34;;;2.09;66.56
61357;BME280;47227;46.752;23.576;2024-01-15T10:20:25;94773.48;;;2.12;67.68
61357;BME280;47227;46.752;23.576;2024-01-15T10:22:55;94768.42;;;2.16;68.46
61357;BME280;47227;46.752;23.576;2024-01-15T10:25:24;94765.03;;;2.20;68.86
61357;BME280;47227;46.752;23.576;2024-01-15T10:28:00;94767.23;;;2.22;68.98
61357;BME280;47227;46.752;23.576;2024-01-15T10:30:30;94770.45;;;2.22;68.41
61357;BME280;47227;46.752;23.576;2024-01-15T10:33:02;94769.61;;;2.22;68.81
61357;BME280;47227;46.752;23.576;2024-01-15T10:35:32;94770.41;;;2.20;68.15
61357;BME280;47227;46.752;23.576;2024-01-15T10:38:02;94769.05;;;2.16;67.55
61357;BME280;47227;46.752;23.576;2024-01-15T10:40:31;94758.67;;;2.18;67.76
61357;BME280;47227;46.752;23.576;2024-01-15T10:43:00;94759.70;;;2.19;68.04
61357;BME280;47227;46.752;23.576;2024-01-15T10:45:28;94752.35;;;2.20;68.30
61357;BME280;47227;46.752;23.576;2024-01-15T10:47:57;94754.19;;;2.21;68.61
61357;BME280;47227;46.752;23.576;2024-01-15T10:50:29;94753.80;;;2.23;68.80
61357;BME280;47227;46.752;23.576;2024-01-15T10:52:58;94754.67;;;2.23;68.81
61357;BME280;47227;46.752;23.576;2024-01-15T10:55:27;94758.04;;;2.22;68.88
61357;BME280;47227;46.752;23.576;2024-01-15T10:57:57;94765.58;;;2.21;69.02
61357;BME280;47227;46.752;23.576;2024-01-15T11:00:26;94761.56;;;2.21;68.89
61357;BME280;47227;46.752;23.576;2024-01-15T11:02:56;94766.37;;;2.19;69.11
61357;BME280;47227;46.752;23.576;2024-01-15T11:05:25;94758.35;;;2.19;69.02
61357;BME280;47227;46.752;23.576;2024-01-15T11:07:55;94753.73;;;2.19;68.73
61357;BME280;47227;46.752;23.576;2024-01-15T11:10:44;94750.40;;;2.20;68.70
61357;BME280;47227;46.752;23.576;2024-01-15T11:16:08;94748.14;;;2.21;69.01
61357;BME280;47227;46.752;23.576;2024-01-15T11:18:43;94753.09;;;2.21;68.82
61357;BME280;47227;46.752;23.576;2024-01-15T11:23:48;94753.87;;;2.18;69.02
61357;BME280;47227;46.752;23.576;2024-01-15T11:29:01;94752.55;;;2.10;69.02
61357;BME280;47227;46.752;23.576;2024-01-15T11:34:10;94757.95;;;2.03;69.19
61357;BME280;47227;46.752;23.576;2024-01-15T11:42:03;94751.87;;;1.93;69.00
61357;BME280;47227;46.752;23.576;2024-01-15T11:44:33;94760.25;;;1.88;68.95
61357;BME280;47227;46.752;23.576;2024-01-15T11:47:06;94771.69;;;1.79;68.72
61357;BME280;47227;46.752;23.576;2024-01-15T11:52:22;94771.94;;;1.65;68.51
61357;BME280;47227;46.752;23.576;2024-01-15T11:57:47;94774.05;;;1.53;68.51
61357;BME280;47227;46.752;23.576;2024-01-15T12:00:17;94773.91;;;1.51;68.84
61357;BME280;47227;46.752;23.576;2024-01-15T12:02:46;94779.06;;;1.50;69.41
61357;BME280;47227;46.752;23.576;2024-01-15T12:05:17;94778.61;;;1.49;69.54
61357;BME280;47227;46.752;23.576;2024-01-15T12:07:49;94775.07;;;1.48;69.71
61357;BME280;47227;46.752;23.576;2024-01-15T12:10:19;94768.88;;;1.48;70.19
61357;BME280;47227;46.752;23.576;2024-01-15T12:13:05;94778.85;;;1.44;70.28
61357;BME280;47227;46.752;23.576;2024-01-15T12:15:35;94782.90;;;1.40;70.58
61357;BME280;47227;46.752;23.576;2024-01-15T12:18:04;94772.24;;;1.41;70.71
61357;BME280;47227;46.752;23.576;2024-01-15T12:20:33;94770.91;;;1.42;70.95
61357;BME280;47227;46.752;23.576;2024-01-15T12:23:02;94767.03;;;1.41;70.92
61357;BME280;47227;46.752;23.576;2024-01-15T12:25:36;94770.59;;;1.41;71.06
61357;BME280;47227;46.752;23.576;2024-01-15T12:28:06;94773.11;;;1.38;71.26
61357;BME280;47227;46.752;23.576;2024-01-15T12:30:34;94774.91;;;1.35;71.26
61357;BME280;47227;46.752;23.576;2024-01-15T12:33:05;94765.29;;;1.32;71.75
61357;BME280;47227;46.752;23.576;2024-01-15T12:35:34;94763.08;;;1.30;71.94
61357;BME280;47227;46.752;23.576;2024-01-15T12:38:03;94759.11;;;1.31;71.91
61357;BME280;47227;46.752;23.576;2024-01-15T12:40:33;94754.73;;;1.31;71.84
61357;BME280;47227;46.752;23.576;2024-01-15T12:43:07;94750.46;;;1.32;72.09
61357;BME280;47227;46.752;23.576;2024-01-15T12:45:36;94744.28;;;1.33;72.10
61357;BME280;47227;46.752;23.576;2024-01-15T12:48:06;94741.45;;;1.33;72.78
61357;BME280;47227;46.752;23.576;2024-01-15T12:50:35;94742.77;;;1.33;72.95
61357;BME280;47227;46.752;23.576;2024-01-15T12:53:04;94746.79;;;1.35;73.48
61357;BME280;47227;46.752;23.576;2024-01-15T12:55:33;94746.92;;;1.36;72.87
61357;BME280;47227;46.752;23.576;2024-01-15T12:58:02;94750.16;;;1.40;72.90
61357;BME280;47227;46.752;23.576;2024-01-15T13:00:32;94747.84;;;1.43;72.87
61357;BME280;47227;46.752;23.576;2024-01-15T13:03:02;94742.46;;;1.45;72.96
61357;BME280;47227;46.752;23.576;2024-01-15T13:05:32;94747.60;;;1.46;72.91
61357;BME280;47227;46.752;23.576;2024-01-15T13:08:02;94759.19;;;1.47;74.06
61357;BME280;47227;46.752;23.576;2024-01-15T13:10:31;94767.24;;;1.46;73.80
61357;BME280;47227;46.752;23.576;2024-01-15T13:13:00;94764.77;;;1.44;75.81
61357;BME280;47227;46.752;23.576;2024-01-15T13:15:30;94763.06;;;1.42;76.36
61357;BME280;47227;46.752;23.576;2024-01-15T13:17:59;94769.58;;;1.42;75.16
61357;BME280;47227;46.752;23.576;2024-01-15T13:20:28;94773.48;;;1.41;75.27
61357;BME280;47227;46.752;23.576;2024-01-15T13:22:57;94779.98;;;1.41;74.76
61357;BME280;47227;46.752;23.576;2024-01-15T13:25:25;94776.86;;;1.37;75.29